sensor_id;sensor_type;location;lat;lon;timestamp;temperature;humidity
13389;DHT22;6764;53.250;10.410;2022-09-30T00:01:07;11.30;99.90
13389;DHT22;6764;53.250;10.410;2022-09-30T00:03:33;11.30;99.90
13389;DHT22;6764;53.250;10.410;2022-09-30T00:06:01;11.30;99.90
13389;DHT22;6764;53.250;10.410;2022-09-30T00:08:27;11.20;99.90
13389;DHT22;6764;53.250;10.410;2022-09-30T00:11:19;11.10;99.90
13389;DHT22;6764;53.250;10.410;2022-09-30T00:13:48;11.10;99.90
13389;DHT22;6764;53.250;10.410;2022-09-30T00:16:15;11.10;99.90
13389;DHT22;6764;53.250;10.410;2022-09-30T00:18:42;11.10;99.90
13389;DHT22;6764;53.250;10.410;2022-09-30T00:21:10;11.10;99.90
13389;DHT22;6764;53.250;10.410;2022-09-30T00:23:36;11.00;99.90
13389;DHT22;6764;53.250;10.410;2022-09-30T00:26:06;10.90;99.90
13389;DHT22;6764;53.250;10.410;2022-09-30T00:28:32;10.90;99.90
13389;DHT22;6764;53.250;10.410;2022-09-30T00:31:00;10.80;99.90
13389;DHT22;6764;53.250;10.410;2022-09-30T00:33:26;10.80;99.90
13389;DHT22;6764;53.250;10.410;2022-09-30T00:35:52;10.70;99.90
13389;DHT22;6764;53.250;10.410;2022-09-30T00:38:18;10.70;99.90
13389;DHT22;6764;53.250;10.410;2022-09-30T00:40:44;10.70;99.90
13389;DHT22;6764;53.250;10.410;2022-09-30T00:43:15;10.60;99.90
13389;DHT22;6764;53.250;10.410;2022-09-30T00:45:54;10.60;99.90
13389;DHT22;6764;53.250;10.410;2022-09-30T00:48:32;10.60;99.90
13389;DHT22;6764;53.250;10.410;2022-09-30T00:51:00;10.50;99.90
13389;DHT22;6764;53.250;10.410;2022-09-30T00:53:48;10.50;99.90
13389;DHT22;6764;53.250;10.410;2022-09-30T00:56:22;10.40;99.90
13389;DHT22;6764;53.250;10.410;2022-09-30T00:59:00;10.40;99.90
13389;DHT22;6764;53.250;10.410;2022-09-30T01:01:26;10.40;99.90
13389;DHT22;6764;53.250;10.410;2022-09-30T01:03:56;10.40;99.90
13389;DHT22;6764;53.250;10.410;2022-09-30T01:06:24;10.40;99.90
13389;DHT22;6764;53.250;10.410;2022-09-30T01:08:50;10.40;99.90
13389;DHT22;6764;53.250;10.410;2022-09-30T01:11:16;10.30;99.90
13389;DHT22;6764;53.250;10.410;2022-09-30T01:13:44;10.30;99.90
13389;DHT22;6764;53.250;10.410;2022-09-30T01:19:12;10.20;99.90
13389;DHT22;6764;53.250;10.410;2022-09-30T01:22:07;10.10;99.90
13389;DHT22;6764;53.250;10.410;2022-09-30T01:24:57;10.10;99.90
13389;DHT22;6764;53.250;10.410;2022-09-30T01:30:45;10.10;99.90
13389;DHT22;6764;53.250;10.410;2022-09-30T01:36:27;10.10;99.90
13389;DHT22;6764;53.250;10.410;2022-09-30T01:39:23;9.90;99.90
13389;DHT22;6764;53.250;10.410;2022-09-30T01:41:51;9.90;99.90
13389;DHT22;6764;53.250;10.410;2022-09-30T01:45:14;9.90;99.90
13389;DHT22;6764;53.250;10.410;2022-09-30T01:47:33;9.90;99.90
13389;DHT22;6764;53.250;10.410;2022-09-30T01:50:24;9.80;99.90
13389;DHT22;6764;53.250;10.410;2022-09-30T01:53:00;9.80;99.90
13389;DHT22;6764;53.250;10.410;2022-09-30T01:56:01;9.80;99.90
13389;DHT22;6764;53.250;10.410;2022-09-30T01:58:56;9.70;99.90
13389;DHT22;6764;53.250;10.410;2022-09-30T02:01:28;9.60;99.90
13389;DHT22;6764;53.250;10.410;2022-09-30T02:03:59;9.60;99.90
13389;DHT22;6764;53.250;10.410;2022-09-30T02:06:33;9.60;99.90
13389;DHT22;6764;53.250;10.410;2022-09-30T02:09:03;9.70;99.90
13389;DHT22;6764;53.250;10.410;2022-09-30T02:11:34;9.70;99.90
13389;DHT22;6764;53.250;10.410;2022-09-30T02:14:15;9.60;99.90
13389;DHT22;6764;53.250;10.410;2022-09-30T02:17:14;9.60;99.90
13389;DHT22;6764;53.250;10.410;2022-09-30T02:19:51;9.50;99.90
13389;DHT22;6764;53.250;10.410;2022-09-30T02:22:25;9.50;99.90
13389;DHT22;6764;53.250;10.410;2022-09-30T02:24:59;9.60;99.90
13389;DHT22;6764;53.250;10.410;2022-09-30T02:27:40;9.50;99.90
13389;DHT22;6764;53.250;10.410;2022-09-30T02:30:11;9.60;99.90
13389;DHT22;6764;53.250;10.410;2022-09-30T02:32:45;9.60;99.90
13389;DHT22;6764;53.250;10.410;2022-09-30T02:35:35;9.60;99.90
13389;DHT22;6764;53.250;10.410;2022-09-30T02:38:06;9.60;99.90
13389;DHT22;6764;53.250;10.410;2022-09-30T02:40:51;9.70;99.90
13389;DHT22;6764;53.250;10.410;2022-09-30T02:43:19;9.70;99.90
13389;DHT22;6764;53.250;10.410;2022-09-30T02:46:11;9.70;99.90
13389;DHT22;6764;53.250;10.410;2022-09-30T02:48:41;9.70;99.90
13389;DHT22;6764;53.250;10.410;2022-09-30T02:56:23;9.90;99.90
13389;DHT22;6764;53.250;10.410;2022-09-30T02:58:52;10.00;99.90
13389;DHT22;6764;53.250;10.410;2022-09-30T03:01:20;10.00;99.90
13389;DHT22;6764;53.250;10.410;2022-09-30T03:03:52;10.00;99.90
13389;DHT22;6764;53.250;10.410;2022-09-30T03:06:20;10.00;99.90
13389;DHT22;6764;53.250;10.410;2022-09-30T03:08:46;10.00;99.90
13389;DHT22;6764;53.250;10.410;2022-09-30T03:11:21;10.00;99.90
13389;DHT22;6764;53.250;10.410;2022-09-30T03:20:01;9.90;99.90
13389;DHT22;6764;53.250;10.410;2022-09-30T03:30:22;9.90;99.90
13389;DHT22;6764;53.250;10.410;2022-09-30T03:33:11;9.90;99.90
13389;DHT22;6764;53.250;10.410;2022-09-30T03:43:48;9.90;99.90
13389;DHT22;6764;53.250;10.410;2022-09-30T03:48:56;9.80;99.90
13389;DHT22;6764;53.250;10.410;2022-09-30T03:51:23;9.80;99.90
13389;DHT22;6764;53.250;10.410;2022-09-30T03:53:49;9.80;99.90
13389;DHT22;6764;53.250;10.410;2022-09-30T03:56:26;9.70;99.90
13389;DHT22;6764;53.250;10.410;2022-09-30T03:58:52;9.70;99.90
13389;DHT22;6764;53.250;10.410;2022-09-30T04:01:19;9.70;99.90
13389;DHT22;6764;53.250;10.410;2022-09-30T04:03:47;9.70;99.90
13389;DHT22;6764;53.250;10.410;2022-09-30T04:06:13;9.60;99.90
13389;DHT22;6764;53.250;10.410;2022-09-30T04:08:38;9.60;99.90
13389;DHT22;6764;53.250;10.410;2022-09-30T04:11:04;9.50;99.90
13389;DHT22;6764;53.250;10.410;2022-09-30T04:13:31;9.50;99.90
13389;DHT22;6764;53.250;10.410;2022-09-30T04:15:56;9.50;99.90
13389;DHT22;6764;53.250;10.410;2022-09-30T04:18:22;9.50;99.90
13389;DHT22;6764;53.250;10.410;2022-09-30T04:20:49;9.50;99.90
13389;DHT22;6764;53.250;10.410;2022-09-30T04:23:14;9.50;99.90
13389;DHT22;6764;53.250;10.410;2022-09-30T04:25:40;9.40;99.90
13389;DHT22;6764;53.250;10.410;2022-09-30T04:28:06;9.30;99.90
13389;DHT22;6764;53.250;10.410;2022-09-30T04:30:32;9.30;99.90
13389;DHT22;6764;53.250;10.410;2022-09-30T04:32:57;9.20;99.90
13389;DHT22;6764;53.250;10.410;2022-09-30T04:35:23;9.20;99.90
13389;DHT22;6764;53.250;10.410;2022-09-30T04:37:49;9.30;99.90
13389;DHT22;6764;53.250;10.410;2022-09-30T04:40:15;9.20;99.90
13389;DHT22;6764;53.250;10.410;2022-09-30T04:42:42;9.20;99.90
13389;DHT22;6764;53.250;10.410;2022-09-30T04:45:09;9.20;99.90
13389;DHT22;6764;53.250;10.410;2022-09-30T04:47:35;9.20;99.90
13389;DHT22;6764;53.250;10.410;2022-09-30T04:50:00;9.20;99.90
13389;DHT22;6764;53.250;10.410;2022-09-30T04:52:26;9.20;99.90
13389;DHT22;6764;53.250;10.410;2022-09-30T04:54:51;9.20;99.90
13389;DHT22;6764;53.250;10.410;2022-09-30T04:57:18;9.10;99.90
13389;DHT22;6764;53.250;10.410;2022-09-30T04:59:44;9.10;99.90
13389;DHT22;6764;53.250;10.410;2022-09-30T05:02:10;9.10;99.90
13389;DHT22;6764;53.250;10.410;2022-09-30T05:04:37;9.10;99.90
13389;DHT22;6764;53.250;10.410;2022-09-30T05:07:03;9.10;99.90
13389;DHT22;6764;53.250;10.410;2022-09-30T05:09:33;9.00;99.90
13389;DHT22;6764;53.250;10.410;2022-09-30T05:11:59;9.00;99.90
13389;DHT22;6764;53.250;10.410;2022-09-30T05:14:26;9.00;99.90
13389;DHT22;6764;53.250;10.410;2022-09-30T05:16:51;8.90;99.90
13389;DHT22;6764;53.250;10.410;2022-09-30T05:19:17;8.90;99.90
13389;DHT22;6764;53.250;10.410;2022-09-30T05:21:42;8.90;99.90
13389;DHT22;6764;53.250;10.410;2022-09-30T05:24:09;8.80;99.90
13389;DHT22;6764;53.250;10.410;2022-09-30T05:26:35;8.80;99.90
13389;DHT22;6764;53.250;10.410;2022-09-30T05:29:00;8.90;99.90
13389;DHT22;6764;53.250;10.410;2022-09-30T05:31:26;8.80;99.90
13389;DHT22;6764;53.250;10.410;2022-09-30T05:33:52;8.80;99.90
13389;DHT22;6764;53.250;10.410;2022-09-30T05:36:19;8.80;99.90
13389;DHT22;6764;53.250;10.410;2022-09-30T05:38:45;8.90;99.90
13389;DHT22;6764;53.250;10.410;2022-09-30T05:41:14;8.90;99.90
13389;DHT22;6764;53.250;10.410;2022-09-30T05:43:41;9.00;99.90
13389;DHT22;6764;53.250;10.410;2022-09-30T05:46:07;9.00;99.90
13389;DHT22;6764;53.250;10.410;2022-09-30T05:48:32;9.00;99.90
13389;DHT22;6764;53.250;10.410;2022-09-30T05:50:58;9.00;99.90
13389;DHT22;6764;53.250;10.410;2022-09-30T05:53:27;9.10;99.90
13389;DHT22;6764;53.250;10.410;2022-09-30T05:55:53;9.10;99.90
13389;DHT22;6764;53.250;10.410;2022-09-30T05:58:19;9.10;99.90
13389;DHT22;6764;53.250;10.410;2022-09-30T06:00:46;9.10;99.90
13389;DHT22;6764;53.250;10.410;2022-09-30T06:03:13;9.20;99.90
13389;DHT22;6764;53.250;10.410;2022-09-30T06:05:39;9.20;99.90
13389;DHT22;6764;53.250;10.410;2022-09-30T06:08:05;9.20;99.90
13389;DHT22;6764;53.250;10.410;2022-09-30T06:10:34;9.30;99.90
13389;DHT22;6764;53.250;10.410;2022-09-30T06:13:03;9.30;99.90
13389;DHT22;6764;53.250;10.410;2022-09-30T06:15:29;9.30;99.90
13389;DHT22;6764;53.250;10.410;2022-09-30T06:17:55;9.40;99.90
13389;DHT22;6764;53.250;10.410;2022-09-30T06:20:20;9.50;99.90
13389;DHT22;6764;53.250;10.410;2022-09-30T06:22:46;9.50;99.90
13389;DHT22;6764;53.250;10.410;2022-09-30T06:25:12;9.50;99.90
13389;DHT22;6764;53.250;10.410;2022-09-30T06:27:38;9.60;99.90
13389;DHT22;6764;53.250;10.410;2022-09-30T06:30:05;9.60;99.90
13389;DHT22;6764;53.250;10.410;2022-09-30T06:32:31;9.60;99.90
13389;DHT22;6764;53.250;10.410;2022-09-30T06:34:56;9.70;99.90
13389;DHT22;6764;53.250;10.410;2022-09-30T06:37:22;9.80;99.90
13389;DHT22;6764;53.250;10.410;2022-09-30T06:39:48;9.80;99.90
13389;DHT22;6764;53.250;10.410;2022-09-30T06:42:16;9.80;99.90
13389;DHT22;6764;53.250;10.410;2022-09-30T06:44:42;9.80;99.90
13389;DHT22;6764;53.250;10.410;2022-09-30T06:47:09;9.80;99.90
13389;DHT22;6764;53.250;10.410;2022-09-30T06:49:34;9.80;99.90
13389;DHT22;6764;53.250;10.410;2022-09-30T06:52:00;9.80;99.90
13389;DHT22;6764;53.250;10.410;2022-09-30T06:54:26;9.90;99.90
13389;DHT22;6764;53.250;10.410;2022-09-30T06:56:53;10.00;99.90
13389;DHT22;6764;53.250;10.410;2022-09-30T06:59:22;10.00;99.90
13389;DHT22;6764;53.250;10.410;2022-09-30T07:01:48;10.00;99.90
13389;DHT22;6764;53.250;10.410;2022-09-30T07:04:13;10.10;99.90
13389;DHT22;6764;53.250;10.410;2022-09-30T07:06:39;10.00;99.90
13389;DHT22;6764;53.250;10.410;2022-09-30T07:09:06;10.10;99.90
13389;DHT22;6764;53.250;10.410;2022-09-30T07:11:32;10.10;99.90
13389;DHT22;6764;53.250;10.410;2022-09-30T07:13:57;10.10;99.90
13389;DHT22;6764;53.250;10.410;2022-09-30T07:16:23;10.10;99.90
13389;DHT22;6764;53.250;10.410;2022-09-30T07:18:51;10.10;99.90
13389;DHT22;6764;53.250;10.410;2022-09-30T07:21:17;10.10;99.90
13389;DHT22;6764;53.250;10.410;2022-09-30T07:23:43;10.20;99.90
13389;DHT22;6764;53.250;10.410;2022-09-30T07:26:16;10.20;99.90
13389;DHT22;6764;53.250;10.410;2022-09-30T07:28:43;10.20;99.90
13389;DHT22;6764;53.250;10.410;2022-09-30T07:31:11;10.20;99.90
13389;DHT22;6764;53.250;10.410;2022-09-30T07:33:38;10.10;99.90
13389;DHT22;6764;53.250;10.410;2022-09-30T07:36:04;10.10;99.90
13389;DHT22;6764;53.250;10.410;2022-09-30T07:38:33;10.20;99.90
13389;DHT22;6764;53.250;10.410;2022-09-30T07:41:03;10.30;99.90
13389;DHT22;6764;53.250;10.410;2022-09-30T07:43:31;10.50;99.90
13389;DHT22;6764;53.250;10.410;2022-09-30T07:46:07;10.60;99.90
13389;DHT22;6764;53.250;10.410;2022-09-30T07:48:33;10.70;99.90
13389;DHT22;6764;53.250;10.410;2022-09-30T07:53:40;10.70;99.90
13389;DHT22;6764;53.250;10.410;2022-09-30T07:56:07;10.60;99.90
13389;DHT22;6764;53.250;10.410;2022-09-30T07:58:33;10.70;99.90
13389;DHT22;6764;53.250;10.410;2022-09-30T08:00:59;10.70;99.90
13389;DHT22;6764;53.250;10.410;2022-09-30T08:03:25;10.60;99.90
13389;DHT22;6764;53.250;10.410;2022-09-30T08:05:51;10.70;99.90
13389;DHT22;6764;53.250;10.410;2022-09-30T08:08:17;10.70;99.90
13389;DHT22;6764;53.250;10.410;2022-09-30T08:10:43;10.70;99.90
13389;DHT22;6764;53.250;10.410;2022-09-30T08:13:09;10.70;99.90
13389;DHT22;6764;53.250;10.410;2022-09-30T08:15:38;10.80;99.90
13389;DHT22;6764;53.250;10.410;2022-09-30T08:18:04;10.80;99.90
13389;DHT22;6764;53.250;10.410;2022-09-30T08:20:29;10.80;99.90
13389;DHT22;6764;53.250;10.410;2022-09-30T08:22:56;10.90;99.90
13389;DHT22;6764;53.250;10.410;2022-09-30T08:25:23;11.00;99.90
13389;DHT22;6764;53.250;10.410;2022-09-30T08:27:48;11.00;99.90
13389;DHT22;6764;53.250;10.410;2022-09-30T08:30:15;11.20;99.90
13389;DHT22;6764;53.250;10.410;2022-09-30T08:32:40;11.20;99.90
13389;DHT22;6764;53.250;10.410;2022-09-30T08:35:07;11.60;99.90
13389;DHT22;6764;53.250;10.410;2022-09-30T08:37:32;13.30;99.90
13389;DHT22;6764;53.250;10.410;2022-09-30T08:39:58;15.20;99.90
13389;DHT22;6764;53.250;10.410;2022-09-30T08:50:52;21.10;99.90
13389;DHT22;6764;53.250;10.410;2022-09-30T08:53:25;22.00;99.90
13389;DHT22;6764;53.250;10.410;2022-09-30T08:55:53;23.50;99.90
13389;DHT22;6764;53.250;10.410;2022-09-30T08:58:32;25.20;99.30
13389;DHT22;6764;53.250;10.410;2022-09-30T09:04:01;25.20;96.70
13389;DHT22;6764;53.250;10.410;2022-09-30T09:06:33;25.90;95.80
13389;DHT22;6764;53.250;10.410;2022-09-30T09:14:37;28.50;91.10
13389;DHT22;6764;53.250;10.410;2022-09-30T09:19:46;29.20;89.50
13389;DHT22;6764;53.250;10.410;2022-09-30T09:22:13;29.50;88.30
13389;DHT22;6764;53.250;10.410;2022-09-30T09:24:43;28.80;87.80
13389;DHT22;6764;53.250;10.410;2022-09-30T09:27:19;29.00;86.80
13389;DHT22;6764;53.250;10.410;2022-09-30T09:30:05;29.30;85.50
13389;DHT22;6764;53.250;10.410;2022-09-30T09:32:32;29.70;86.20
13389;DHT22;6764;53.250;10.410;2022-09-30T09:35:01;29.90;82.20
13389;DHT22;6764;53.250;10.410;2022-09-30T09:37:39;29.40;84.20
13389;DHT22;6764;53.250;10.410;2022-09-30T09:45:41;30.30;79.20
13389;DHT22;6764;53.250;10.410;2022-09-30T09:48:12;30.60;78.00
13389;DHT22;6764;53.250;10.410;2022-09-30T09:51:59;30.90;77.70
13389;DHT22;6764;53.250;10.410;2022-09-30T09:53:53;30.10;76.20
13389;DHT22;6764;53.250;10.410;2022-09-30T09:56:27;29.60;77.70
13389;DHT22;6764;53.250;10.410;2022-09-30T09:59:15;29.20;77.20
13389;DHT22;6764;53.250;10.410;2022-09-30T10:01:45;29.10;78.90
13389;DHT22;6764;53.250;10.410;2022-09-30T10:04:23;29.00;77.70
13389;DHT22;6764;53.250;10.410;2022-09-30T10:06:59;28.00;79.40
13389;DHT22;6764;53.250;10.410;2022-09-30T10:09:41;26.70;81.50
13389;DHT22;6764;53.250;10.410;2022-09-30T10:14:41;27.10;81.90
13389;DHT22;6764;53.250;10.410;2022-09-30T10:17:32;27.30;81.10
13389;DHT22;6764;53.250;10.410;2022-09-30T10:20:17;27.10;82.10
13389;DHT22;6764;53.250;10.410;2022-09-30T10:22:43;27.60;81.40
13389;DHT22;6764;53.250;10.410;2022-09-30T10:25:20;27.30;81.00
13389;DHT22;6764;53.250;10.410;2022-09-30T10:33:15;27.70;81.10
13389;DHT22;6764;53.250;10.410;2022-09-30T10:36:09;27.00;81.00
13389;DHT22;6764;53.250;10.410;2022-09-30T10:38:43;26.70;81.60
13389;DHT22;6764;53.250;10.410;2022-09-30T10:41:10;26.60;83.00
13389;DHT22;6764;53.250;10.410;2022-09-30T10:43:42;26.70;82.80
13389;DHT22;6764;53.250;10.410;2022-09-30T10:46:09;27.40;82.00
13389;DHT22;6764;53.250;10.410;2022-09-30T10:48:37;27.00;81.40
13389;DHT22;6764;53.250;10.410;2022-09-30T10:51:03;25.50;82.10
13389;DHT22;6764;53.250;10.410;2022-09-30T10:53:33;24.90;84.00
13389;DHT22;6764;53.250;10.410;2022-09-30T10:55:58;23.80;85.50
13389;DHT22;6764;53.250;10.410;2022-09-30T11:01:21;21.40;91.00
13389;DHT22;6764;53.250;10.410;2022-09-30T11:04:30;20.80;92.40
13389;DHT22;6764;53.250;10.410;2022-09-30T11:06:49;19.80;93.60
13389;DHT22;6764;53.250;10.410;2022-09-30T11:09:26;18.70;95.20
13389;DHT22;6764;53.250;10.410;2022-09-30T11:11:58;18.30;96.60
13389;DHT22;6764;53.250;10.410;2022-09-30T11:14:38;18.30;96.80
13389;DHT22;6764;53.250;10.410;2022-09-30T11:17:27;18.50;97.10
13389;DHT22;6764;53.250;10.410;2022-09-30T11:20:22;19.20;96.40
13389;DHT22;6764;53.250;10.410;2022-09-30T11:22:55;20.10;95.70
13389;DHT22;6764;53.250;10.410;2022-09-30T11:28:43;21.10;94.10
13389;DHT22;6764;53.250;10.410;2022-09-30T11:31:25;21.70;93.10
13389;DHT22;6764;53.250;10.410;2022-09-30T11:37:16;22.00;92.10
13389;DHT22;6764;53.250;10.410;2022-09-30T11:43:02;20.40;95.40
13389;DHT22;6764;53.250;10.410;2022-09-30T11:48:51;19.30;97.10
13389;DHT22;6764;53.250;10.410;2022-09-30T11:54:26;19.20;97.00
13389;DHT22;6764;53.250;10.410;2022-09-30T11:57:00;19.20;97.10
13389;DHT22;6764;53.250;10.410;2022-09-30T12:02:03;18.70;97.80
13389;DHT22;6764;53.250;10.410;2022-09-30T12:04:39;18.70;98.10
13389;DHT22;6764;53.250;10.410;2022-09-30T12:07:15;18.70;98.50
13389;DHT22;6764;53.250;10.410;2022-09-30T12:09:43;18.70;98.00
13389;DHT22;6764;53.250;10.410;2022-09-30T12:12:16;18.70;97.90
13389;DHT22;6764;53.250;10.410;2022-09-30T12:19:51;18.30;98.80
13389;DHT22;6764;53.250;10.410;2022-09-30T12:22:29;18.20;98.80
13389;DHT22;6764;53.250;10.410;2022-09-30T12:24:55;18.10;98.70
13389;DHT22;6764;53.250;10.410;2022-09-30T12:27:40;18.10;98.10
13389;DHT22;6764;53.250;10.410;2022-09-30T12:30:17;18.10;98.20
13389;DHT22;6764;53.250;10.410;2022-09-30T12:42:10;17.80;98.60
13389;DHT22;6764;53.250;10.410;2022-09-30T12:49:56;17.70;99.80
13389;DHT22;6764;53.250;10.410;2022-09-30T12:52:23;17.80;99.10
13389;DHT22;6764;53.250;10.410;2022-09-30T12:55:36;17.80;98.80
13389;DHT22;6764;53.250;10.410;2022-09-30T12:57:45;17.90;97.80
13389;DHT22;6764;53.250;10.410;2022-09-30T13:00:18;17.90;97.50
13389;DHT22;6764;53.250;10.410;2022-09-30T13:02:48;17.90;96.90
13389;DHT22;6764;53.250;10.410;2022-09-30T13:05:41;18.00;97.00
13389;DHT22;6764;53.250;10.410;2022-09-30T13:10:50;18.00;97.20
13389;DHT22;6764;53.250;10.410;2022-09-30T13:13:19;18.10;97.10
13389;DHT22;6764;53.250;10.410;2022-09-30T13:15:49;18.20;96.80
13389;DHT22;6764;53.250;10.410;2022-09-30T13:23:53;18.30;95.70
13389;DHT22;6764;53.250;10.410;2022-09-30T13:28:52;18.40;95.70
13389;DHT22;6764;53.250;10.410;2022-09-30T13:31:22;18.40;95.50
13389;DHT22;6764;53.250;10.410;2022-09-30T13:48:13;18.00;95.20
13389;DHT22;6764;53.250;10.410;2022-09-30T13:50:44;17.80;94.90
13389;DHT22;6764;53.250;10.410;2022-09-30T13:53:35;17.70;94.40
13389;DHT22;6764;53.250;10.410;2022-09-30T13:56:05;17.70;94.70
13389;DHT22;6764;53.250;10.410;2022-09-30T14:07:31;17.80;94.30
13389;DHT22;6764;53.250;10.410;2022-09-30T14:16:06;17.60;94.90
13389;DHT22;6764;53.250;10.410;2022-09-30T14:34:52;17.50;95.10
13389;DHT22;6764;53.250;10.410;2022-09-30T14:37:24;17.50;94.80
13389;DHT22;6764;53.250;10.410;2022-09-30T14:39:50;17.50;95.20
13389;DHT22;6764;53.250;10.410;2022-09-30T14:42:28;17.50;94.80
13389;DHT22;6764;53.250;10.410;2022-09-30T14:44:57;17.50;95.20
13389;DHT22;6764;53.250;10.410;2022-09-30T14:47:30;17.60;95.40
13389;DHT22;6764;53.250;10.410;2022-09-30T14:49:57;17.70;95.50
13389;DHT22;6764;53.250;10.410;2022-09-30T14:52:41;17.80;95.20
13389;DHT22;6764;53.250;10.410;2022-09-30T14:55:33;17.90;95.00
13389;DHT22;6764;53.250;10.410;2022-09-30T15:01:10;17.90;94.90
13389;DHT22;6764;53.250;10.410;2022-09-30T15:03:39;17.80;94.20
13389;DHT22;6764;53.250;10.410;2022-09-30T15:06:17;17.80;93.70
13389;DHT22;6764;53.250;10.410;2022-09-30T15:08:43;17.80;93.70
13389;DHT22;6764;53.250;10.410;2022-09-30T15:11:19;17.80;93.60
13389;DHT22;6764;53.250;10.410;2022-09-30T15:13:47;17.80;93.40
13389;DHT22;6764;53.250;10.410;2022-09-30T15:16:24;17.70;93.60
13389;DHT22;6764;53.250;10.410;2022-09-30T15:18:50;17.60;93.90
13389;DHT22;6764;53.250;10.410;2022-09-30T15:21:18;17.60;93.80
13389;DHT22;6764;53.250;10.410;2022-09-30T15:23:47;17.60;93.90
13389;DHT22;6764;53.250;10.410;2022-09-30T15:26:20;17.50;93.90
13389;DHT22;6764;53.250;10.410;2022-09-30T15:28:46;17.40;94.10
13389;DHT22;6764;53.250;10.410;2022-09-30T15:31:22;17.20;94.50
13389;DHT22;6764;53.250;10.410;2022-09-30T15:33:48;17.20;94.90
13389;DHT22;6764;53.250;10.410;2022-09-30T15:36:16;17.20;94.70
13389;DHT22;6764;53.250;10.410;2022-09-30T15:38:47;17.10;94.80
13389;DHT22;6764;53.250;10.410;2022-09-30T15:41:13;16.90;94.80
13389;DHT22;6764;53.250;10.410;2022-09-30T15:43:48;16.90;94.90
13389;DHT22;6764;53.250;10.410;2022-09-30T15:46:30;16.90;95.10
13389;DHT22;6764;53.250;10.410;2022-09-30T15:49:01;16.90;95.30
13389;DHT22;6764;53.250;10.410;2022-09-30T15:51:31;16.80;95.60
13389;DHT22;6764;53.250;10.410;2022-09-30T15:56:40;16.80;96.10
13389;DHT22;6764;53.250;10.410;2022-09-30T15:59:07;16.70;96.60
13389;DHT22;6764;53.250;10.410;2022-09-30T16:09:32;16.50;97.60
13389;DHT22;6764;53.250;10.410;2022-09-30T16:12:08;16.50;98.00
13389;DHT22;6764;53.250;10.410;2022-09-30T16:14:42;16.40;98.00
13389;DHT22;6764;53.250;10.410;2022-09-30T16:17:28;16.40;98.10
13389;DHT22;6764;53.250;10.410;2022-09-30T16:19:55;16.30;98.20
13389;DHT22;6764;53.250;10.410;2022-09-30T16:30:21;16.00;98.80
13389;DHT22;6764;53.250;10.410;2022-09-30T16:32:50;16.00;99.20
13389;DHT22;6764;53.250;10.410;2022-09-30T16:35:22;15.90;99.30
13389;DHT22;6764;53.250;10.410;2022-09-30T16:37:49;15.80;99.60
13389;DHT22;6764;53.250;10.410;2022-09-30T16:40:26;15.80;99.80
13389;DHT22;6764;53.250;10.410;2022-09-30T16:42:53;15.70;99.90
13389;DHT22;6764;53.250;10.410;2022-09-30T16:45:24;15.60;99.90
13389;DHT22;6764;53.250;10.410;2022-09-30T16:47:49;15.50;99.90
13389;DHT22;6764;53.250;10.410;2022-09-30T16:51:11;15.50;99.90
13389;DHT22;6764;53.250;10.410;2022-09-30T16:53:17;15.50;99.90
13389;DHT22;6764;53.250;10.410;2022-09-30T16:55:43;15.40;99.90
13389;DHT22;6764;53.250;10.410;2022-09-30T16:58:11;15.40;99.90
13389;DHT22;6764;53.250;10.410;2022-09-30T17:00:39;15.30;99.90
13389;DHT22;6764;53.250;10.410;2022-09-30T17:03:06;15.20;99.90
13389;DHT22;6764;53.250;10.410;2022-09-30T17:05:31;15.20;99.90
13389;DHT22;6764;53.250;10.410;2022-09-30T17:07:58;15.10;99.90
13389;DHT22;6764;53.250;10.410;2022-09-30T17:10:26;15.10;99.90
13389;DHT22;6764;53.250;10.410;2022-09-30T17:12:54;15.00;99.90
13389;DHT22;6764;53.250;10.410;2022-09-30T17:15:20;14.90;99.90
13389;DHT22;6764;53.250;10.410;2022-09-30T17:17:46;14.80;99.90
13389;DHT22;6764;53.250;10.410;2022-09-30T17:20:12;14.70;99.90
13389;DHT22;6764;53.250;10.410;2022-09-30T17:22:38;14.60;99.90
13389;DHT22;6764;53.250;10.410;2022-09-30T17:25:03;14.50;99.90
13389;DHT22;6764;53.250;10.410;2022-09-30T17:27:29;14.40;99.90
13389;DHT22;6764;53.250;10.410;2022-09-30T17:29:55;14.30;99.90
13389;DHT22;6764;53.250;10.410;2022-09-30T17:32:21;14.30;99.90
13389;DHT22;6764;53.250;10.410;2022-09-30T17:34:46;14.30;99.90
13389;DHT22;6764;53.250;10.410;2022-09-30T17:37:12;14.10;99.90
13389;DHT22;6764;53.250;10.410;2022-09-30T17:39:39;14.10;99.90
13389;DHT22;6764;53.250;10.410;2022-09-30T17:42:10;14.00;99.90
13389;DHT22;6764;53.250;10.410;2022-09-30T17:44:56;13.90;99.90
13389;DHT22;6764;53.250;10.410;2022-09-30T17:47:21;13.90;99.90
13389;DHT22;6764;53.250;10.410;2022-09-30T17:49:47;13.80;99.90
13389;DHT22;6764;53.250;10.410;2022-09-30T17:52:13;13.70;99.90
13389;DHT22;6764;53.250;10.410;2022-09-30T17:54:39;13.70;99.90
13389;DHT22;6764;53.250;10.410;2022-09-30T17:57:04;13.60;99.90
13389;DHT22;6764;53.250;10.410;2022-09-30T17:59:30;13.60;99.90
13389;DHT22;6764;53.250;10.410;2022-09-30T18:01:55;13.60;99.90
13389;DHT22;6764;53.250;10.410;2022-09-30T18:04:22;13.50;99.90
13389;DHT22;6764;53.250;10.410;2022-09-30T18:06:51;13.50;99.90
13389;DHT22;6764;53.250;10.410;2022-09-30T18:09:17;13.40;99.90
13389;DHT22;6764;53.250;10.410;2022-09-30T18:11:42;13.30;99.90
13389;DHT22;6764;53.250;10.410;2022-09-30T18:14:09;13.20;99.90
13389;DHT22;6764;53.250;10.410;2022-09-30T18:16:35;13.20;99.90
13389;DHT22;6764;53.250;10.410;2022-09-30T18:19:02;13.10;99.90
13389;DHT22;6764;53.250;10.410;2022-09-30T18:21:29;13.00;99.90
13389;DHT22;6764;53.250;10.410;2022-09-30T18:23:55;13.00;99.90
13389;DHT22;6764;53.250;10.410;2022-09-30T18:26:25;12.90;99.90
13389;DHT22;6764;53.250;10.410;2022-09-30T18:28:53;12.90;99.90
13389;DHT22;6764;53.250;10.410;2022-09-30T18:31:21;12.90;99.90
13389;DHT22;6764;53.250;10.410;2022-09-30T18:33:56;12.80;99.90
13389;DHT22;6764;53.250;10.410;2022-09-30T18:36:23;12.70;99.90
13389;DHT22;6764;53.250;10.410;2022-09-30T18:38:49;12.70;99.90
13389;DHT22;6764;53.250;10.410;2022-09-30T18:41:15;12.60;99.90
13389;DHT22;6764;53.250;10.410;2022-09-30T18:43:41;12.60;99.90
13389;DHT22;6764;53.250;10.410;2022-09-30T18:46:09;12.50;99.90
13389;DHT22;6764;53.250;10.410;2022-09-30T18:48:35;12.50;99.90
13389;DHT22;6764;53.250;10.410;2022-09-30T18:51:02;12.40;99.90
13389;DHT22;6764;53.250;10.410;2022-09-30T18:53:28;12.40;99.90
13389;DHT22;6764;53.250;10.410;2022-09-30T18:56:07;12.30;99.90
13389;DHT22;6764;53.250;10.410;2022-09-30T18:58:33;12.20;99.90
13389;DHT22;6764;53.250;10.410;2022-09-30T19:01:02;12.20;99.90
13389;DHT22;6764;53.250;10.410;2022-09-30T19:03:31;12.20;99.90
13389;DHT22;6764;53.250;10.410;2022-09-30T19:05:57;12.10;99.90
13389;DHT22;6764;53.250;10.410;2022-09-30T19:08:26;12.10;99.90
13389;DHT22;6764;53.250;10.410;2022-09-30T19:10:52;12.10;99.90